Terminal Aerodrome Forecast
Issued by NWS

Home | Current Version | Previous Version | Text Only | Print | Product List | Glossary On
Versions: 1 2 3 4 5 6 7 8 9 10 11 12 13 14 15 16 17 18 19 20 21
000
FTUS41 KRLX 052300
TAFCKB
TAF
KCKB 052327Z 0600/0624 31006KT 2SM -SN BKN010
     FM060100 33005KT 6SM BR BKN020
     FM060400 33004KT P6SM SCT025
     FM061500 22004KT P6SM FEW020
     FM062200 VRB03KT P6SM FEW080=

USA.gov is the U.S. government's official web portal to all federal, state and local government web resources and services.